createdAt,value
2022-09-14T00:00:42.425Z,15.61
2022-09-14T00:03:25.423Z,15.62
2022-09-14T00:06:09.901Z,15.59
2022-09-14T00:08:54.185Z,15.57
2022-09-14T00:11:38.938Z,15.55
2022-09-14T00:14:22.033Z,15.53
2022-09-14T00:17:04.973Z,15.49
2022-09-14T00:19:47.961Z,15.48
2022-09-14T00:22:31.037Z,15.48
2022-09-14T00:25:14.009Z,15.52
2022-09-14T00:27:58.794Z,15.56
2022-09-14T00:30:42.505Z,15.59
2022-09-14T00:33:25.448Z,15.60
2022-09-14T00:36:11.334Z,15.57
2022-09-14T00:38:56.564Z,15.68
2022-09-14T00:41:42.161Z,15.70
2022-09-14T00:45:02.308Z,15.69
2022-09-14T00:47:45.659Z,15.68
2022-09-14T00:50:28.965Z,15.71
2022-09-14T00:53:11.965Z,15.76
2022-09-14T00:55:55.177Z,15.78
2022-09-14T00:58:38.186Z,15.82
2022-09-14T01:01:22.748Z,15.86
2022-09-14T01:04:05.975Z,15.88
2022-09-14T01:06:57.505Z,15.90
2022-09-14T01:09:47.639Z,15.91
2022-09-14T01:12:40.227Z,15.93
2022-09-14T01:15:32.727Z,15.90
2022-09-14T01:18:22.591Z,15.91
2022-09-14T01:21:10.156Z,15.93
2022-09-14T01:24:02.699Z,15.92
2022-09-14T01:27:12.865Z,15.93
2022-09-14T01:30:07.699Z,15.96
2022-09-14T01:32:54.787Z,15.96
2022-09-14T01:35:43.436Z,15.94
2022-09-14T01:38:32.446Z,15.89
2022-09-14T01:41:18.701Z,15.90
2022-09-14T01:44:09.483Z,15.86
2022-09-14T01:46:55.666Z,15.82
2022-09-14T01:49:44.526Z,15.77
2022-09-14T01:52:32.971Z,15.74
2022-09-14T01:55:20.076Z,15.69
2022-09-14T01:58:09.280Z,15.63
2022-09-14T02:00:56.824Z,15.56
2022-09-14T02:03:46.619Z,15.47
2022-09-14T02:06:35.559Z,15.47
2022-09-14T02:09:26.438Z,15.42
2022-09-14T02:12:09.946Z,15.44
2022-09-14T02:14:55.273Z,15.46
2022-09-14T02:17:40.054Z,15.48
2022-09-14T02:20:24.598Z,15.47
2022-09-14T02:23:08.007Z,15.41
2022-09-14T02:25:51.467Z,15.40
2022-09-14T02:28:36.707Z,15.40
2022-09-14T02:31:29.627Z,15.36
2022-09-14T02:34:25.315Z,15.33
2022-09-14T02:37:12.345Z,15.30
2022-09-14T02:40:06.886Z,15.25
2022-09-14T02:43:00.260Z,15.24
2022-09-14T02:45:51.807Z,15.25
2022-09-14T02:48:42.088Z,15.23
2022-09-14T02:51:32.903Z,15.25
2022-09-14T02:54:18.998Z,15.26
2022-09-14T02:57:02.708Z,15.27
2022-09-14T02:59:45.701Z,15.29
2022-09-14T03:02:28.763Z,15.29
2022-09-14T03:05:11.773Z,15.28
2022-09-14T03:07:56.190Z,15.27
2022-09-14T03:10:39.577Z,15.27
2022-09-14T03:13:22.654Z,15.26
2022-09-14T03:16:07.327Z,15.26
2022-09-14T03:18:50.386Z,15.25
2022-09-14T03:21:34.094Z,15.27
2022-09-14T03:24:18.385Z,15.30
2022-09-14T03:27:01.391Z,15.31
2022-09-14T03:29:44.342Z,15.33
2022-09-14T03:32:27.404Z,15.34
2022-09-14T03:35:10.574Z,15.38
2022-09-14T03:37:53.601Z,15.39
2022-09-14T03:40:37.988Z,15.44
2022-09-14T03:43:21.770Z,15.47
2022-09-14T03:46:08.928Z,15.50
2022-09-14T03:48:52.041Z,15.54
2022-09-14T03:51:35.497Z,15.58
2022-09-14T03:54:18.653Z,15.58
2022-09-14T03:57:02.964Z,15.58
2022-09-14T03:59:45.979Z,15.53
2022-09-14T04:02:29.781Z,15.49
2022-09-14T04:05:12.862Z,15.47
2022-09-14T04:07:55.837Z,15.46
2022-09-14T04:10:40.757Z,15.43
2022-09-14T04:13:25.287Z,15.41
2022-09-14T04:16:08.757Z,15.41
2022-09-14T04:18:51.859Z,15.45
2022-09-14T04:21:34.846Z,15.44
2022-09-14T04:24:18.286Z,15.44
2022-09-14T04:27:01.373Z,15.44
2022-09-14T04:29:45.784Z,15.45
2022-09-14T04:32:33.492Z,15.45
2022-09-14T04:35:17.438Z,15.45
2022-09-14T04:38:00.354Z,15.45
2022-09-14T04:40:43.319Z,15.45
2022-09-14T04:43:27.368Z,15.47
2022-09-14T04:46:14.701Z,15.51
2022-09-14T04:48:58.005Z,15.50
2022-09-14T04:51:40.911Z,15.47
2022-09-14T04:54:23.943Z,15.41
2022-09-14T04:57:06.982Z,15.36
2022-09-14T04:59:49.951Z,15.33
2022-09-14T05:02:34.195Z,15.25
2022-09-14T05:05:17.323Z,15.16
2022-09-14T05:08:00.278Z,15.08
2022-09-14T05:10:43.264Z,15.01
2022-09-14T05:13:26.964Z,14.92
2022-09-14T05:16:11.794Z,14.84
2022-09-14T05:18:57.001Z,14.77
2022-09-14T05:21:39.987Z,14.68
2022-09-14T05:24:23.150Z,14.58
2022-09-14T05:27:06.283Z,14.53
2022-09-14T05:29:49.191Z,14.52
2022-09-14T05:32:32.103Z,14.52
2022-09-14T05:35:16.442Z,14.51
2022-09-14T05:37:59.467Z,14.51
2022-09-14T05:40:42.743Z,14.51
2022-09-14T05:43:26.376Z,14.53
2022-09-14T05:46:12.547Z,14.48
2022-09-14T05:48:55.659Z,14.50
2022-09-14T05:51:40.011Z,14.48
2022-09-14T05:54:23.081Z,14.46
2022-09-14T05:57:06.085Z,14.46
2022-09-14T05:59:49.150Z,14.46
2022-09-14T06:02:32.195Z,14.46
2022-09-14T06:05:15.481Z,14.44
2022-09-14T06:07:59.922Z,14.43
2022-09-14T06:10:42.978Z,14.47
2022-09-14T06:13:25.897Z,14.51
2022-09-14T06:16:11.079Z,14.50
2022-09-14T06:18:55.823Z,14.50
2022-09-14T06:21:38.750Z,14.56
2022-09-14T06:24:43.062Z,14.65
2022-09-14T06:27:37.086Z,14.69
2022-09-14T06:30:22.271Z,14.73
2022-09-14T06:33:06.294Z,14.84
2022-09-14T06:35:56.792Z,14.96
2022-09-14T06:38:40.514Z,15.04
2022-09-14T06:41:29.187Z,15.15
2022-09-14T06:44:12.215Z,15.24
2022-09-14T06:46:55.197Z,15.28
2022-09-14T06:49:38.075Z,15.21
2022-09-14T06:52:21.160Z,15.17
2022-09-14T06:55:04.245Z,15.24
2022-09-14T06:57:50.215Z,15.23
2022-09-14T07:00:33.119Z,15.20
2022-09-14T07:03:16.136Z,15.26
2022-09-14T07:06:04.187Z,15.28
2022-09-14T07:08:47.107Z,15.39
2022-09-14T07:11:30.492Z,15.47
2022-09-14T07:14:14.791Z,15.44
2022-09-14T07:16:57.698Z,15.39
2022-09-14T07:19:40.608Z,15.45
2022-09-14T07:22:23.606Z,15.46
2022-09-14T07:25:07.742Z,15.49
2022-09-14T07:27:50.748Z,15.48
2022-09-14T07:30:37.928Z,15.53
2022-09-14T07:33:20.869Z,15.58
2022-09-14T07:36:08.159Z,15.61
2022-09-14T07:38:52.910Z,15.65
2022-09-14T07:41:36.880Z,15.71
2022-09-14T07:44:19.784Z,15.78
2022-09-14T07:47:04.300Z,15.75
2022-09-14T07:49:47.359Z,15.74
2022-09-14T07:52:32.793Z,15.75
2022-09-14T07:55:19.041Z,15.76
2022-09-14T07:58:01.947Z,15.79
2022-09-14T08:00:45.706Z,15.78
2022-09-14T08:03:31.563Z,15.83
2022-09-14T08:06:16.669Z,15.80
2022-09-14T08:08:59.854Z,15.84
2022-09-14T08:11:42.958Z,15.89
2022-09-14T08:14:26.244Z,15.94
2022-09-14T08:17:10.338Z,16.00
2022-09-14T08:19:55.682Z,16.01
2022-09-14T08:22:39.207Z,16.01
2022-09-14T08:25:22.273Z,16.00
2022-09-14T08:28:05.689Z,15.99
2022-09-14T08:30:48.752Z,15.89
2022-09-14T08:33:32.742Z,15.90
2022-09-14T08:36:19.580Z,15.92
2022-09-14T08:39:02.834Z,15.97
2022-09-14T08:41:52.750Z,16.02
2022-09-14T08:44:40.802Z,16.06
2022-09-14T08:47:29.083Z,16.09
2022-09-14T08:50:17.258Z,16.13
2022-09-14T08:53:01.691Z,16.12
2022-09-14T08:55:49.660Z,16.12
2022-09-14T08:58:48.102Z,16.15
2022-09-14T09:01:43.878Z,16.15
2022-09-14T09:04:36.241Z,16.20
2022-09-14T09:07:27.660Z,16.21
2022-09-14T09:10:14.553Z,16.22
2022-09-14T09:13:00.308Z,16.24
2022-09-14T09:15:49.150Z,16.25
2022-09-14T09:18:39.275Z,16.20
2022-09-14T09:21:24.912Z,16.22
2022-09-14T09:24:27.168Z,16.19
2022-09-14T09:27:16.017Z,16.18
2022-09-14T09:29:58.936Z,16.21
2022-09-14T09:32:44.962Z,16.19
2022-09-14T09:35:51.664Z,16.20
2022-09-14T09:38:38.190Z,16.21
2022-09-14T09:41:23.888Z,16.22
2022-09-14T09:44:10.553Z,16.22
2022-09-14T09:46:56.998Z,16.24
2022-09-14T09:49:40.650Z,16.27
2022-09-14T09:52:23.645Z,16.30
2022-09-14T09:55:08.166Z,16.32
2022-09-14T09:57:51.111Z,16.35
2022-09-14T10:00:35.706Z,16.36
2022-09-14T10:03:31.861Z,16.40
2022-09-14T10:06:15.432Z,16.40
2022-09-14T10:08:59.546Z,16.42
2022-09-14T10:11:43.160Z,16.47
2022-09-14T10:14:31.384Z,16.53
2022-09-14T10:17:20.386Z,16.61
2022-09-14T10:20:04.211Z,16.67
2022-09-14T10:22:47.293Z,16.76
2022-09-14T10:25:30.345Z,16.84
2022-09-14T10:28:22.964Z,16.84
2022-09-14T10:31:14.175Z,16.88
2022-09-14T10:33:59.369Z,16.97
2022-09-14T10:36:50.232Z,17.06
2022-09-14T10:39:40.383Z,17.16
2022-09-14T10:42:34.368Z,17.23
2022-09-14T10:45:28.398Z,17.31
2022-09-14T10:48:23.347Z,17.36
2022-09-14T10:51:20.732Z,17.44
2022-09-14T10:54:17.382Z,17.50
2022-09-14T10:57:10.504Z,17.53
2022-09-14T10:59:56.824Z,17.57
2022-09-14T11:02:53.279Z,17.59
2022-09-14T11:05:40.105Z,17.65
2022-09-14T11:08:32.185Z,17.70
2022-09-14T11:11:33.128Z,17.80
2022-09-14T11:14:29.009Z,17.89
2022-09-14T11:17:26.673Z,17.99
2022-09-14T11:20:23.792Z,18.04
2022-09-14T11:23:24.580Z,18.08
2022-09-14T11:26:15.318Z,18.11
2022-09-14T11:29:04.872Z,18.15
2022-09-14T11:32:16.826Z,18.17
2022-09-14T11:35:00.165Z,18.20
2022-09-14T11:37:47.968Z,18.21
2022-09-14T11:40:36.208Z,18.24
2022-09-14T11:43:25.993Z,18.24
2022-09-14T11:46:13.724Z,18.22
2022-09-14T11:49:10.555Z,18.26
2022-09-14T11:51:56.871Z,18.27
2022-09-14T11:54:46.007Z,18.31
2022-09-14T11:57:31.650Z,18.39
2022-09-14T12:00:47.520Z,18.47
2022-09-14T12:03:54.271Z,18.55
2022-09-14T12:06:55.310Z,18.53
2022-09-14T12:09:44.575Z,18.57
2022-09-14T12:12:35.962Z,18.59
2022-09-14T12:15:35.062Z,18.61
2022-09-14T12:18:25.715Z,18.59
2022-09-14T12:21:21.846Z,18.63
2022-09-14T12:24:15.837Z,18.66
2022-09-14T12:26:58.899Z,18.69
2022-09-14T12:29:41.946Z,18.72
2022-09-14T12:32:44.470Z,18.78
2022-09-14T12:35:46.370Z,18.85
2022-09-14T12:39:10.671Z,19.10
2022-09-14T12:42:28.335Z,19.47
2022-09-14T12:45:47.141Z,19.82
2022-09-14T12:48:58.630Z,20.02
2022-09-14T12:51:49.260Z,20.18
2022-09-14T12:54:49.226Z,20.41
2022-09-14T12:57:44.546Z,20.62
2022-09-14T13:00:30.868Z,20.77
2022-09-14T13:03:34.909Z,20.88
2022-09-14T13:06:19.337Z,20.82
2022-09-14T13:09:09.442Z,20.86
2022-09-14T13:11:57.275Z,20.87
2022-09-14T13:14:48.585Z,20.87
2022-09-14T13:17:31.593Z,20.79
2022-09-14T13:20:23.163Z,20.74
2022-09-14T13:23:20.837Z,20.70
2022-09-14T13:26:13.354Z,20.72
2022-09-14T13:28:58.706Z,20.74
2022-09-14T13:31:42.432Z,20.81
2022-09-14T13:34:28.530Z,20.90
2022-09-14T13:37:14.535Z,21.01
2022-09-14T13:39:59.708Z,21.12
2022-09-14T13:42:44.513Z,21.12
2022-09-14T13:45:27.606Z,21.11
2022-09-14T13:48:14.909Z,21.14
2022-09-14T13:50:58.074Z,21.14
2022-09-14T13:53:45.531Z,21.13
2022-09-14T13:56:31.384Z,21.15
2022-09-14T13:59:19.117Z,21.18
2022-09-14T14:02:03.340Z,21.20
2022-09-14T14:04:49.269Z,21.14
2022-09-14T14:07:34.343Z,21.13
2022-09-14T14:10:29.962Z,21.09
2022-09-14T14:13:13.067Z,21.08
2022-09-14T14:16:14.488Z,21.03
2022-09-14T14:18:59.138Z,21.01
2022-09-14T14:21:42.076Z,20.97
2022-09-14T14:24:28.120Z,20.94
2022-09-14T14:27:27.728Z,20.87
2022-09-14T14:30:15.991Z,20.86
2022-09-14T14:33:01.385Z,20.95
2022-09-14T14:35:44.408Z,21.04
2022-09-14T14:38:27.409Z,21.09
2022-09-14T14:41:14.878Z,21.14
2022-09-14T14:43:57.840Z,21.18
2022-09-14T14:46:42.463Z,21.24
2022-09-14T14:49:26.779Z,21.23
2022-09-14T14:52:11.764Z,21.24
2022-09-14T14:54:54.774Z,21.24
2022-09-14T14:57:39.003Z,21.26
2022-09-14T15:00:24.623Z,21.30
2022-09-14T15:03:07.668Z,21.32
2022-09-14T15:05:51.946Z,21.31
2022-09-14T15:08:34.947Z,21.29
2022-09-14T15:11:18.933Z,21.35
2022-09-14T15:14:01.873Z,21.42
2022-09-14T15:16:45.464Z,21.48
2022-09-14T15:19:28.987Z,21.49
2022-09-14T15:22:14.193Z,21.46
2022-09-14T15:24:57.109Z,21.46
2022-09-14T15:27:40.648Z,21.37
2022-09-14T15:30:23.575Z,21.28
2022-09-14T15:33:06.692Z,21.19
2022-09-14T15:35:55.920Z,21.08
2022-09-14T15:38:40.268Z,20.99
2022-09-14T15:41:23.328Z,20.86
2022-09-14T15:44:07.438Z,20.77
2022-09-14T15:46:50.862Z,20.65
2022-09-14T15:49:33.992Z,20.53
2022-09-14T15:52:16.963Z,20.48
2022-09-14T15:55:01.277Z,20.44
2022-09-14T15:57:44.234Z,20.37
2022-09-14T16:00:27.263Z,20.30
2022-09-14T16:03:11.022Z,20.23
2022-09-14T16:05:54.036Z,20.20
2022-09-14T16:08:37.636Z,20.17
2022-09-14T16:11:22.744Z,20.15
2022-09-14T16:14:06.962Z,20.10
2022-09-14T16:16:50.007Z,20.07
2022-09-14T16:19:33.703Z,20.07
2022-09-14T16:22:16.787Z,20.02
2022-09-14T16:24:59.709Z,20.03
2022-09-14T16:27:44.300Z,20.00
2022-09-14T16:30:27.260Z,19.96
2022-09-14T16:33:10.259Z,19.93
2022-09-14T16:36:03.676Z,19.83
2022-09-14T16:38:46.837Z,19.74
2022-09-14T16:41:30.350Z,19.66
2022-09-14T16:44:16.788Z,19.62
2022-09-14T16:47:00.018Z,19.50
2022-09-14T16:49:43.036Z,19.37
2022-09-14T16:52:26.195Z,19.33
2022-09-14T16:55:09.481Z,19.33
2022-09-14T16:57:52.379Z,19.33
2022-09-14T17:00:39.410Z,19.33
2022-09-14T17:03:31.573Z,19.28
2022-09-14T17:06:16.638Z,19.26
2022-09-14T17:09:01.331Z,19.26
2022-09-14T17:11:44.922Z,19.20
2022-09-14T17:14:31.307Z,19.16
2022-09-14T17:17:15.941Z,19.17
2022-09-14T17:19:58.843Z,19.15
2022-09-14T17:22:41.984Z,19.15
2022-09-14T17:25:25.013Z,19.01
2022-09-14T17:28:08.048Z,19.00
2022-09-14T17:30:51.838Z,19.01
2022-09-14T17:33:36.352Z,19.00
2022-09-14T17:36:19.515Z,18.95
2022-09-14T17:39:09.183Z,18.96
2022-09-14T17:41:54.625Z,18.93
2022-09-14T17:44:37.571Z,18.91
2022-09-14T17:47:20.622Z,18.73
2022-09-14T17:50:05.513Z,18.49
2022-09-14T17:52:48.290Z,18.24
2022-09-14T17:55:33.350Z,18.16
2022-09-14T17:58:19.617Z,18.04
2022-09-14T18:01:08.535Z,17.97
2022-09-14T18:03:53.659Z,17.81
2022-09-14T18:06:40.344Z,17.80
2022-09-14T18:09:25.202Z,17.69
2022-09-14T18:12:10.345Z,17.60
2022-09-14T18:14:53.292Z,17.57
2022-09-14T18:17:36.365Z,17.53
2022-09-14T18:20:19.654Z,17.45
2022-09-14T18:23:04.027Z,17.39
2022-09-14T18:25:47.166Z,17.27
2022-09-14T18:28:30.174Z,17.21
2022-09-14T18:31:15.979Z,17.18
2022-09-14T18:34:00.886Z,17.18
2022-09-14T18:36:43.802Z,17.16
2022-09-14T18:39:28.450Z,17.15
2022-09-14T18:42:11.333Z,17.16
2022-09-14T18:44:55.673Z,17.19
2022-09-14T18:47:38.659Z,17.21
2022-09-14T18:50:23.191Z,17.24
2022-09-14T18:53:06.462Z,17.28
2022-09-14T18:55:50.782Z,17.31
2022-09-14T18:58:35.110Z,17.35
2022-09-14T19:01:18.259Z,17.36
2022-09-14T19:04:02.852Z,17.35
2022-09-14T19:06:45.867Z,17.35
2022-09-14T19:09:28.907Z,17.32
2022-09-14T19:12:13.170Z,17.31
2022-09-14T19:14:56.142Z,17.31
2022-09-14T19:17:39.421Z,17.31
2022-09-14T19:20:23.150Z,17.30
2022-09-14T19:23:07.158Z,17.27
2022-09-14T19:25:50.227Z,17.26
2022-09-14T19:28:35.159Z,17.26
2022-09-14T19:31:20.968Z,17.21
2022-09-14T19:34:06.014Z,17.18
2022-09-14T19:36:49.745Z,17.13
2022-09-14T19:39:32.891Z,17.10
2022-09-14T19:42:15.835Z,17.07
2022-09-14T19:45:00.223Z,17.04
2022-09-14T19:47:43.360Z,17.04
2022-09-14T19:50:26.477Z,17.04
2022-09-14T19:53:09.751Z,17.04
2022-09-14T19:55:52.832Z,17.06
2022-09-14T19:58:37.414Z,17.05
2022-09-14T20:01:23.687Z,17.05
2022-09-14T20:04:07.853Z,17.06
2022-09-14T20:06:52.476Z,17.07
2022-09-14T20:09:35.684Z,17.08
2022-09-14T20:12:18.676Z,17.09
2022-09-14T20:15:01.615Z,17.08
2022-09-14T20:17:45.947Z,17.09
2022-09-14T20:20:28.820Z,17.10
2022-09-14T20:23:11.875Z,17.12
2022-09-14T20:25:54.750Z,17.10
2022-09-14T20:28:39.171Z,17.11
2022-09-14T20:31:22.185Z,17.12
2022-09-14T20:34:07.092Z,17.13
2022-09-14T20:36:50.082Z,17.11
2022-09-14T20:39:36.009Z,17.11
2022-09-14T20:42:18.978Z,17.08
2022-09-14T20:45:01.934Z,17.06
2022-09-14T20:47:45.089Z,17.04
2022-09-14T20:50:29.386Z,17.04
2022-09-14T20:53:12.349Z,17.05
2022-09-14T20:56:01.453Z,17.04
2022-09-14T20:58:45.028Z,17.04
2022-09-14T21:01:30.102Z,17.04
2022-09-14T21:04:13.498Z,17.03
2022-09-14T21:06:57.891Z,17.02
2022-09-14T21:09:40.816Z,16.98
2022-09-14T21:12:23.810Z,16.97
2022-09-14T21:15:07.325Z,16.96
2022-09-14T21:17:50.377Z,16.92
2022-09-14T21:20:36.841Z,16.90
2022-09-14T21:23:21.125Z,16.88
2022-09-14T21:26:04.364Z,16.86
2022-09-14T21:28:47.955Z,16.84
2022-09-14T21:31:31.024Z,16.84
2022-09-14T21:34:14.494Z,16.82
2022-09-14T21:36:57.426Z,16.81
2022-09-14T21:39:41.834Z,16.82
2022-09-14T21:42:24.795Z,16.81
2022-09-14T21:45:08.900Z,16.82
2022-09-14T21:47:51.788Z,16.81
2022-09-14T21:50:34.800Z,16.84
2022-09-14T21:53:17.725Z,16.86
2022-09-14T21:56:03.640Z,16.86
2022-09-14T21:58:50.606Z,16.86
2022-09-14T22:01:33.866Z,16.89
2022-09-14T22:04:18.926Z,16.90
2022-09-14T22:07:01.863Z,16.93
2022-09-14T22:09:44.848Z,16.91
2022-09-14T22:12:30.990Z,16.92
2022-09-14T22:15:15.947Z,16.94
2022-09-14T22:18:02.091Z,16.93
2022-09-14T22:20:45.360Z,16.91
2022-09-14T22:23:28.448Z,16.91
2022-09-14T22:26:12.848Z,16.91
2022-09-14T22:28:59.318Z,16.92
2022-09-14T22:31:44.018Z,16.91
2022-09-14T22:34:27.305Z,16.91
2022-09-14T22:37:10.632Z,16.91
2022-09-14T22:39:53.812Z,16.89
2022-09-14T22:42:37.097Z,16.92
2022-09-14T22:45:21.789Z,16.96
2022-09-14T22:48:04.597Z,16.96
2022-09-14T22:50:50.454Z,16.96
2022-09-14T22:53:34.812Z,16.95
2022-09-14T22:56:20.491Z,16.97
2022-09-14T22:59:05.686Z,16.98
2022-09-14T23:01:50.046Z,16.97
2022-09-14T23:04:33.625Z,16.97
2022-09-14T23:07:16.759Z,16.96
2022-09-14T23:09:59.923Z,16.97
2022-09-14T23:12:42.862Z,16.98
2022-09-14T23:15:25.908Z,16.98
2022-09-14T23:18:11.075Z,16.98
2022-09-14T23:20:54.073Z,16.98
2022-09-14T23:23:39.183Z,16.97
2022-09-14T23:26:22.723Z,16.95
2022-09-14T23:29:09.171Z,16.96
2022-09-14T23:31:52.183Z,16.97
2022-09-14T23:34:36.680Z,16.98
2022-09-14T23:37:19.982Z,16.99
2022-09-14T23:40:03.421Z,16.99
2022-09-14T23:42:46.439Z,16.98
2022-09-14T23:45:29.387Z,17.00
2022-09-14T23:48:13.287Z,17.01
2022-09-14T23:51:02.964Z,17.01
2022-09-14T23:53:46.113Z,17.01
2022-09-14T23:56:29.111Z,17.00
2022-09-14T23:59:13.949Z,17.00
